Terminal Aerodrome Forecast
Issued by NWS

Home | Current Version | Previous Version | Text Only | Print | Product List | Glossary On
Versions: 1 2 3 4 5 6 7 8 9 10 11 12 13 14 15 16 17 18
801
FTAK31 PAJN 251124
TAFAWG
TAF
PAWG 251124Z 2512/2612 31005KT P6SM SCT030
     FM260400 31005KT P6SM BKN020 OVC080
     FM260900 VRB03KT P6SM BKN005 OVC020
      AMD LTD TO CLD VIS AND WIND 2512/2515=

USA.gov is the U.S. government's official web portal to all federal, state and local government web resources and services.